sensor_id;sensor_type;location;lat;lon;timestamp;temperature;humidity
7894;DHT22;51343;51.396;6.656;2022-10-20T00:00:12;8.00;99.90
7894;DHT22;51343;51.396;6.656;2022-10-20T00:02:39;8.00;99.90
7894;DHT22;51343;51.396;6.656;2022-10-20T00:05:06;7.90;99.90
7894;DHT22;51343;51.396;6.656;2022-10-20T00:07:34;7.90;99.90
7894;DHT22;51343;51.396;6.656;2022-10-20T00:10:00;7.80;99.90
7894;DHT22;51343;51.396;6.656;2022-10-20T00:12:27;7.80;99.90
7894;DHT22;51343;51.396;6.656;2022-10-20T00:14:54;7.90;99.90
7894;DHT22;51343;51.396;6.656;2022-10-20T00:17:20;7.90;99.90
7894;DHT22;51343;51.396;6.656;2022-10-20T00:19:47;7.90;99.90
7894;DHT22;51343;51.396;6.656;2022-10-20T00:22:14;8.00;99.90
7894;DHT22;51343;51.396;6.656;2022-10-20T00:24:42;8.00;99.90
7894;DHT22;51343;51.396;6.656;2022-10-20T00:27:09;8.00;99.90
7894;DHT22;51343;51.396;6.656;2022-10-20T00:29:35;8.00;99.90
7894;DHT22;51343;51.396;6.656;2022-10-20T00:32:02;8.00;99.90
7894;DHT22;51343;51.396;6.656;2022-10-20T00:34:29;7.90;99.90
7894;DHT22;51343;51.396;6.656;2022-10-20T00:36:55;7.90;99.90
7894;DHT22;51343;51.396;6.656;2022-10-20T00:39:22;7.90;99.90
7894;DHT22;51343;51.396;6.656;2022-10-20T00:41:50;7.80;99.90
7894;DHT22;51343;51.396;6.656;2022-10-20T00:47:02;7.80;99.90
7894;DHT22;51343;51.396;6.656;2022-10-20T00:49:29;7.70;99.90
7894;DHT22;51343;51.396;6.656;2022-10-20T00:51:55;7.70;99.90
7894;DHT22;51343;51.396;6.656;2022-10-20T00:54:22;7.60;99.90
7894;DHT22;51343;51.396;6.656;2022-10-20T00:56:52;7.60;99.90
7894;DHT22;51343;51.396;6.656;2022-10-20T00:59:20;7.50;99.90
7894;DHT22;51343;51.396;6.656;2022-10-20T01:01:48;7.40;99.90
7894;DHT22;51343;51.396;6.656;2022-10-20T01:04:15;7.40;99.90
7894;DHT22;51343;51.396;6.656;2022-10-20T01:06:41;7.40;99.90
7894;DHT22;51343;51.396;6.656;2022-10-20T01:09:08;7.40;99.90
7894;DHT22;51343;51.396;6.656;2022-10-20T01:11:37;7.40;99.90
7894;DHT22;51343;51.396;6.656;2022-10-20T01:14:12;7.40;99.90
7894;DHT22;51343;51.396;6.656;2022-10-20T01:16:42;7.30;99.90
7894;DHT22;51343;51.396;6.656;2022-10-20T01:19:23;7.30;99.90
7894;DHT22;51343;51.396;6.656;2022-10-20T01:22:01;7.30;99.90
7894;DHT22;51343;51.396;6.656;2022-10-20T01:24:45;7.40;99.90
7894;DHT22;51343;51.396;6.656;2022-10-20T01:27:25;7.40;99.90
7894;DHT22;51343;51.396;6.656;2022-10-20T01:29:54;7.40;99.90
7894;DHT22;51343;51.396;6.656;2022-10-20T01:32:24;7.40;99.90
7894;DHT22;51343;51.396;6.656;2022-10-20T01:34:56;7.50;99.90
7894;DHT22;51343;51.396;6.656;2022-10-20T01:37:26;7.50;99.90
7894;DHT22;51343;51.396;6.656;2022-10-20T01:39:56;7.50;99.90
7894;DHT22;51343;51.396;6.656;2022-10-20T01:42:26;7.50;99.90
7894;DHT22;51343;51.396;6.656;2022-10-20T01:44:54;7.50;99.90
7894;DHT22;51343;51.396;6.656;2022-10-20T01:47:24;7.50;99.90
7894;DHT22;51343;51.396;6.656;2022-10-20T01:49:51;7.50;99.90
7894;DHT22;51343;51.396;6.656;2022-10-20T01:52:19;7.50;99.90
7894;DHT22;51343;51.396;6.656;2022-10-20T01:54:46;7.50;99.90
7894;DHT22;51343;51.396;6.656;2022-10-20T01:57:17;7.50;99.90
7894;DHT22;51343;51.396;6.656;2022-10-20T01:59:53;7.40;99.90
7894;DHT22;51343;51.396;6.656;2022-10-20T02:02:26;7.40;99.90
7894;DHT22;51343;51.396;6.656;2022-10-20T02:05:01;7.40;99.90
7894;DHT22;51343;51.396;6.656;2022-10-20T02:07:32;7.40;99.90
7894;DHT22;51343;51.396;6.656;2022-10-20T02:10:02;7.30;99.90
7894;DHT22;51343;51.396;6.656;2022-10-20T02:12:31;7.30;99.90
7894;DHT22;51343;51.396;6.656;2022-10-20T02:15:01;7.40;99.90
7894;DHT22;51343;51.396;6.656;2022-10-20T02:17:28;7.40;99.90
7894;DHT22;51343;51.396;6.656;2022-10-20T02:19:54;7.50;99.90
7894;DHT22;51343;51.396;6.656;2022-10-20T02:22:22;7.50;99.90
7894;DHT22;51343;51.396;6.656;2022-10-20T02:24:49;7.50;99.90
7894;DHT22;51343;51.396;6.656;2022-10-20T02:27:16;7.50;99.90
7894;DHT22;51343;51.396;6.656;2022-10-20T02:29:44;7.50;99.90
7894;DHT22;51343;51.396;6.656;2022-10-20T02:32:13;7.50;99.90
7894;DHT22;51343;51.396;6.656;2022-10-20T02:34:40;7.50;99.90
7894;DHT22;51343;51.396;6.656;2022-10-20T02:37:07;7.50;99.90
7894;DHT22;51343;51.396;6.656;2022-10-20T02:39:34;7.50;99.90
7894;DHT22;51343;51.396;6.656;2022-10-20T02:42:00;7.40;99.90
7894;DHT22;51343;51.396;6.656;2022-10-20T02:44:27;7.40;99.90
7894;DHT22;51343;51.396;6.656;2022-10-20T02:46:54;7.40;99.90
7894;DHT22;51343;51.396;6.656;2022-10-20T02:49:22;7.40;99.90
7894;DHT22;51343;51.396;6.656;2022-10-20T02:51:49;7.30;99.90
7894;DHT22;51343;51.396;6.656;2022-10-20T02:54:16;7.30;99.90
7894;DHT22;51343;51.396;6.656;2022-10-20T02:56:43;7.30;99.90
7894;DHT22;51343;51.396;6.656;2022-10-20T02:59:11;7.30;99.90
7894;DHT22;51343;51.396;6.656;2022-10-20T03:01:38;7.30;99.90
7894;DHT22;51343;51.396;6.656;2022-10-20T03:04:04;7.30;99.90
7894;DHT22;51343;51.396;6.656;2022-10-20T03:06:32;7.20;99.90
7894;DHT22;51343;51.396;6.656;2022-10-20T03:08:59;7.20;99.90
7894;DHT22;51343;51.396;6.656;2022-10-20T03:11:26;7.20;99.90
7894;DHT22;51343;51.396;6.656;2022-10-20T03:13:52;7.20;99.90
7894;DHT22;51343;51.396;6.656;2022-10-20T03:16:19;7.30;99.90
7894;DHT22;51343;51.396;6.656;2022-10-20T03:18:46;7.30;99.90
7894;DHT22;51343;51.396;6.656;2022-10-20T03:21:12;7.30;99.90
7894;DHT22;51343;51.396;6.656;2022-10-20T03:23:40;7.30;99.90
7894;DHT22;51343;51.396;6.656;2022-10-20T03:26:08;7.30;99.90
7894;DHT22;51343;51.396;6.656;2022-10-20T03:28:35;7.30;99.90
7894;DHT22;51343;51.396;6.656;2022-10-20T03:31:02;7.30;99.90
7894;DHT22;51343;51.396;6.656;2022-10-20T03:33:29;7.30;99.90
7894;DHT22;51343;51.396;6.656;2022-10-20T03:35:55;7.30;99.90
7894;DHT22;51343;51.396;6.656;2022-10-20T03:38:22;7.30;99.90
7894;DHT22;51343;51.396;6.656;2022-10-20T03:40:50;7.30;99.90
7894;DHT22;51343;51.396;6.656;2022-10-20T03:43:17;7.20;99.90
7894;DHT22;51343;51.396;6.656;2022-10-20T03:45:44;7.20;99.90
7894;DHT22;51343;51.396;6.656;2022-10-20T03:48:10;7.20;99.90
7894;DHT22;51343;51.396;6.656;2022-10-20T03:50:37;7.20;99.90
7894;DHT22;51343;51.396;6.656;2022-10-20T03:53:04;7.30;99.90
7894;DHT22;51343;51.396;6.656;2022-10-20T03:55:31;7.30;99.90
7894;DHT22;51343;51.396;6.656;2022-10-20T03:57:59;7.30;99.90
7894;DHT22;51343;51.396;6.656;2022-10-20T04:00:25;7.40;99.90
7894;DHT22;51343;51.396;6.656;2022-10-20T04:02:52;7.40;99.90
7894;DHT22;51343;51.396;6.656;2022-10-20T04:05:19;7.40;99.90
7894;DHT22;51343;51.396;6.656;2022-10-20T04:07:46;7.50;99.90
7894;DHT22;51343;51.396;6.656;2022-10-20T04:10:13;7.50;99.90
7894;DHT22;51343;51.396;6.656;2022-10-20T04:12:40;7.60;99.90
7894;DHT22;51343;51.396;6.656;2022-10-20T04:15:09;7.60;99.90
7894;DHT22;51343;51.396;6.656;2022-10-20T04:17:35;7.60;99.90
7894;DHT22;51343;51.396;6.656;2022-10-20T04:20:03;7.60;99.90
7894;DHT22;51343;51.396;6.656;2022-10-20T04:22:30;7.70;99.90
7894;DHT22;51343;51.396;6.656;2022-10-20T04:24:57;7.60;99.90
7894;DHT22;51343;51.396;6.656;2022-10-20T04:27:24;7.60;99.90
7894;DHT22;51343;51.396;6.656;2022-10-20T04:29:52;7.70;99.90
7894;DHT22;51343;51.396;6.656;2022-10-20T04:32:20;7.60;99.90
7894;DHT22;51343;51.396;6.656;2022-10-20T04:34:47;7.70;99.90
7894;DHT22;51343;51.396;6.656;2022-10-20T04:37:14;7.70;99.90
7894;DHT22;51343;51.396;6.656;2022-10-20T04:39:40;7.80;99.90
7894;DHT22;51343;51.396;6.656;2022-10-20T04:42:07;8.00;99.90
7894;DHT22;51343;51.396;6.656;2022-10-20T04:44:33;8.30;99.90
7894;DHT22;51343;51.396;6.656;2022-10-20T04:47:00;8.70;99.90
7894;DHT22;51343;51.396;6.656;2022-10-20T04:49:28;9.00;99.90
7894;DHT22;51343;51.396;6.656;2022-10-20T04:51:55;9.30;99.90
7894;DHT22;51343;51.396;6.656;2022-10-20T04:54:21;9.60;99.90
7894;DHT22;51343;51.396;6.656;2022-10-20T04:56:48;9.80;99.90
7894;DHT22;51343;51.396;6.656;2022-10-20T04:59:14;10.10;99.90
7894;DHT22;51343;51.396;6.656;2022-10-20T05:01:41;10.10;99.90
7894;DHT22;51343;51.396;6.656;2022-10-20T05:04:08;10.30;99.90
7894;DHT22;51343;51.396;6.656;2022-10-20T05:06:36;10.40;99.90
7894;DHT22;51343;51.396;6.656;2022-10-20T05:09:03;10.40;99.90
7894;DHT22;51343;51.396;6.656;2022-10-20T05:11:32;10.50;99.90
7894;DHT22;51343;51.396;6.656;2022-10-20T05:13:59;10.50;99.90
7894;DHT22;51343;51.396;6.656;2022-10-20T05:16:26;10.70;99.90
7894;DHT22;51343;51.396;6.656;2022-10-20T05:18:53;10.70;99.90
7894;DHT22;51343;51.396;6.656;2022-10-20T05:21:22;10.70;99.90
7894;DHT22;51343;51.396;6.656;2022-10-20T05:23:54;10.70;99.90
7894;DHT22;51343;51.396;6.656;2022-10-20T05:26:22;10.80;99.90
7894;DHT22;51343;51.396;6.656;2022-10-20T05:28:49;10.80;99.90
7894;DHT22;51343;51.396;6.656;2022-10-20T05:31:16;10.80;99.90
7894;DHT22;51343;51.396;6.656;2022-10-20T05:33:44;11.00;99.90
7894;DHT22;51343;51.396;6.656;2022-10-20T05:36:11;11.00;99.90
7894;DHT22;51343;51.396;6.656;2022-10-20T05:38:38;10.90;99.90
7894;DHT22;51343;51.396;6.656;2022-10-20T05:41:07;11.00;99.90
7894;DHT22;51343;51.396;6.656;2022-10-20T05:43:34;11.00;99.90
7894;DHT22;51343;51.396;6.656;2022-10-20T05:46:01;11.00;99.90
7894;DHT22;51343;51.396;6.656;2022-10-20T05:48:27;11.00;99.90
7894;DHT22;51343;51.396;6.656;2022-10-20T05:50:54;11.00;99.90
7894;DHT22;51343;51.396;6.656;2022-10-20T05:53:21;11.00;99.90
7894;DHT22;51343;51.396;6.656;2022-10-20T05:55:47;11.10;99.90
7894;DHT22;51343;51.396;6.656;2022-10-20T05:58:15;11.10;99.90
7894;DHT22;51343;51.396;6.656;2022-10-20T06:00:42;11.10;99.90
7894;DHT22;51343;51.396;6.656;2022-10-20T06:03:16;11.30;99.90
7894;DHT22;51343;51.396;6.656;2022-10-20T06:05:43;11.20;99.90
7894;DHT22;51343;51.396;6.656;2022-10-20T06:08:10;11.40;99.90
7894;DHT22;51343;51.396;6.656;2022-10-20T06:10:36;11.40;99.90
7894;DHT22;51343;51.396;6.656;2022-10-20T06:13:03;11.40;99.90
7894;DHT22;51343;51.396;6.656;2022-10-20T06:15:32;11.40;99.90
7894;DHT22;51343;51.396;6.656;2022-10-20T06:17:59;11.40;99.90
7894;DHT22;51343;51.396;6.656;2022-10-20T06:20:25;11.40;99.90
7894;DHT22;51343;51.396;6.656;2022-10-20T06:22:52;11.40;99.90
7894;DHT22;51343;51.396;6.656;2022-10-20T06:25:19;11.40;99.90
7894;DHT22;51343;51.396;6.656;2022-10-20T06:27:46;11.50;99.90
7894;DHT22;51343;51.396;6.656;2022-10-20T06:30:12;11.40;99.90
7894;DHT22;51343;51.396;6.656;2022-10-20T06:32:40;11.40;99.90
7894;DHT22;51343;51.396;6.656;2022-10-20T06:35:07;11.50;99.90
7894;DHT22;51343;51.396;6.656;2022-10-20T06:37:34;11.50;99.90
7894;DHT22;51343;51.396;6.656;2022-10-20T06:40:00;11.50;99.90
7894;DHT22;51343;51.396;6.656;2022-10-20T06:42:27;11.60;99.90
7894;DHT22;51343;51.396;6.656;2022-10-20T06:44:54;11.70;99.90
7894;DHT22;51343;51.396;6.656;2022-10-20T06:47:20;11.70;99.90
7894;DHT22;51343;51.396;6.656;2022-10-20T06:49:49;11.70;99.90
7894;DHT22;51343;51.396;6.656;2022-10-20T06:52:16;11.80;99.90
7894;DHT22;51343;51.396;6.656;2022-10-20T06:54:43;11.90;99.90
7894;DHT22;51343;51.396;6.656;2022-10-20T06:57:09;11.90;99.90
7894;DHT22;51343;51.396;6.656;2022-10-20T06:59:36;12.10;99.90
7894;DHT22;51343;51.396;6.656;2022-10-20T07:02:03;12.10;99.90
7894;DHT22;51343;51.396;6.656;2022-10-20T07:04:29;12.10;99.90
7894;DHT22;51343;51.396;6.656;2022-10-20T07:06:57;12.10;99.90
7894;DHT22;51343;51.396;6.656;2022-10-20T07:09:24;12.10;99.90
7894;DHT22;51343;51.396;6.656;2022-10-20T07:11:51;12.20;99.90
7894;DHT22;51343;51.396;6.656;2022-10-20T07:14:17;12.20;99.90
7894;DHT22;51343;51.396;6.656;2022-10-20T07:16:44;12.30;99.90
7894;DHT22;51343;51.396;6.656;2022-10-20T07:19:10;12.30;99.90
7894;DHT22;51343;51.396;6.656;2022-10-20T07:21:37;12.30;99.90
7894;DHT22;51343;51.396;6.656;2022-10-20T07:24:05;12.30;99.90
7894;DHT22;51343;51.396;6.656;2022-10-20T07:26:34;12.40;99.90
7894;DHT22;51343;51.396;6.656;2022-10-20T07:29:02;12.50;99.90
7894;DHT22;51343;51.396;6.656;2022-10-20T07:31:29;12.50;99.90
7894;DHT22;51343;51.396;6.656;2022-10-20T07:33:57;12.50;99.90
7894;DHT22;51343;51.396;6.656;2022-10-20T07:36:25;12.60;99.90
7894;DHT22;51343;51.396;6.656;2022-10-20T07:38:52;12.60;99.90
7894;DHT22;51343;51.396;6.656;2022-10-20T07:41:21;12.70;99.90
7894;DHT22;51343;51.396;6.656;2022-10-20T07:43:47;12.70;99.90
7894;DHT22;51343;51.396;6.656;2022-10-20T07:46:14;12.70;99.90
7894;DHT22;51343;51.396;6.656;2022-10-20T07:48:41;12.80;99.90
7894;DHT22;51343;51.396;6.656;2022-10-20T07:51:16;12.80;99.90
7894;DHT22;51343;51.396;6.656;2022-10-20T07:53:42;12.80;99.90
7894;DHT22;51343;51.396;6.656;2022-10-20T07:56:09;12.80;99.90
7894;DHT22;51343;51.396;6.656;2022-10-20T07:58:37;12.80;99.90
7894;DHT22;51343;51.396;6.656;2022-10-20T08:01:04;12.90;99.90
7894;DHT22;51343;51.396;6.656;2022-10-20T08:03:32;12.90;99.90
7894;DHT22;51343;51.396;6.656;2022-10-20T08:05:59;12.90;99.90
7894;DHT22;51343;51.396;6.656;2022-10-20T08:08:25;12.90;99.90
7894;DHT22;51343;51.396;6.656;2022-10-20T08:10:52;13.00;99.90
7894;DHT22;51343;51.396;6.656;2022-10-20T08:13:19;13.00;99.90
7894;DHT22;51343;51.396;6.656;2022-10-20T08:15:47;13.10;99.90
7894;DHT22;51343;51.396;6.656;2022-10-20T08:18:13;13.10;99.90
7894;DHT22;51343;51.396;6.656;2022-10-20T08:20:40;13.10;99.90
7894;DHT22;51343;51.396;6.656;2022-10-20T08:23:07;13.20;99.90
7894;DHT22;51343;51.396;6.656;2022-10-20T08:25:33;13.30;99.90
7894;DHT22;51343;51.396;6.656;2022-10-20T08:28:00;13.30;99.90
7894;DHT22;51343;51.396;6.656;2022-10-20T08:30:27;13.30;99.90
7894;DHT22;51343;51.396;6.656;2022-10-20T08:32:55;13.40;99.90
7894;DHT22;51343;51.396;6.656;2022-10-20T08:35:21;13.40;99.90
7894;DHT22;51343;51.396;6.656;2022-10-20T08:37:48;13.50;99.90
7894;DHT22;51343;51.396;6.656;2022-10-20T08:40:15;13.50;99.90
7894;DHT22;51343;51.396;6.656;2022-10-20T08:42:43;13.60;99.90
7894;DHT22;51343;51.396;6.656;2022-10-20T08:45:13;13.60;99.90
7894;DHT22;51343;51.396;6.656;2022-10-20T08:47:39;13.70;99.90
7894;DHT22;51343;51.396;6.656;2022-10-20T08:50:09;13.80;99.90
7894;DHT22;51343;51.396;6.656;2022-10-20T08:52:37;13.70;99.90
7894;DHT22;51343;51.396;6.656;2022-10-20T08:55:06;13.80;99.90
7894;DHT22;51343;51.396;6.656;2022-10-20T08:57:33;13.80;99.90
7894;DHT22;51343;51.396;6.656;2022-10-20T09:00:06;13.90;99.90
7894;DHT22;51343;51.396;6.656;2022-10-20T09:02:37;13.90;99.90
7894;DHT22;51343;51.396;6.656;2022-10-20T09:05:05;14.00;99.90
7894;DHT22;51343;51.396;6.656;2022-10-20T09:07:34;14.00;99.90
7894;DHT22;51343;51.396;6.656;2022-10-20T09:10:03;14.00;99.90
7894;DHT22;51343;51.396;6.656;2022-10-20T09:12:32;14.00;1.00
7894;DHT22;51343;51.396;6.656;2022-10-20T09:14:59;14.00;27.40
7894;DHT22;51343;51.396;6.656;2022-10-20T09:17:26;14.10;1.00
7894;DHT22;51343;51.396;6.656;2022-10-20T09:19:53;14.10;1.00
7894;DHT22;51343;51.396;6.656;2022-10-20T09:22:21;14.10;1.00
7894;DHT22;51343;51.396;6.656;2022-10-20T09:24:51;14.10;99.90
7894;DHT22;51343;51.396;6.656;2022-10-20T09:27:21;14.10;1.00
7894;DHT22;51343;51.396;6.656;2022-10-20T09:29:48;14.00;1.00
7894;DHT22;51343;51.396;6.656;2022-10-20T09:32:19;14.00;1.00
7894;DHT22;51343;51.396;6.656;2022-10-20T09:34:46;14.00;99.90
7894;DHT22;51343;51.396;6.656;2022-10-20T09:37:14;14.00;99.90
7894;DHT22;51343;51.396;6.656;2022-10-20T09:39:47;14.00;1.00
7894;DHT22;51343;51.396;6.656;2022-10-20T09:42:18;14.10;1.00
7894;DHT22;51343;51.396;6.656;2022-10-20T09:44:46;14.10;1.00
7894;DHT22;51343;51.396;6.656;2022-10-20T09:47:13;14.10;1.00
7894;DHT22;51343;51.396;6.656;2022-10-20T09:49:41;14.20;99.90
7894;DHT22;51343;51.396;6.656;2022-10-20T09:52:15;14.20;1.00
7894;DHT22;51343;51.396;6.656;2022-10-20T09:54:44;14.20;55.80
7894;DHT22;51343;51.396;6.656;2022-10-20T09:57:14;14.20;99.90
7894;DHT22;51343;51.396;6.656;2022-10-20T09:59:44;14.10;99.90
7894;DHT22;51343;51.396;6.656;2022-10-20T10:02:25;14.20;99.90
7894;DHT22;51343;51.396;6.656;2022-10-20T10:04:53;14.10;70.60
7894;DHT22;51343;51.396;6.656;2022-10-20T10:07:29;14.10;1.00
7894;DHT22;51343;51.396;6.656;2022-10-20T10:09:57;14.20;1.00
7894;DHT22;51343;51.396;6.656;2022-10-20T10:12:24;14.20;1.00
7894;DHT22;51343;51.396;6.656;2022-10-20T10:14:53;14.20;2.80
7894;DHT22;51343;51.396;6.656;2022-10-20T10:17:29;14.30;99.90
7894;DHT22;51343;51.396;6.656;2022-10-20T10:19:56;14.30;99.90
7894;DHT22;51343;51.396;6.656;2022-10-20T10:22:23;14.30;1.00
7894;DHT22;51343;51.396;6.656;2022-10-20T10:24:49;14.40;99.90
7894;DHT22;51343;51.396;6.656;2022-10-20T10:27:20;14.50;1.00
7894;DHT22;51343;51.396;6.656;2022-10-20T10:29:47;14.60;1.00
7894;DHT22;51343;51.396;6.656;2022-10-20T10:32:16;14.70;99.90
7894;DHT22;51343;51.396;6.656;2022-10-20T10:37:32;14.70;1.00
7894;DHT22;51343;51.396;6.656;2022-10-20T10:40:00;14.70;47.90
7894;DHT22;51343;51.396;6.656;2022-10-20T10:42:33;14.60;99.90
7894;DHT22;51343;51.396;6.656;2022-10-20T10:45:03;14.60;1.00
7894;DHT22;51343;51.396;6.656;2022-10-20T10:47:39;14.60;1.00
7894;DHT22;51343;51.396;6.656;2022-10-20T10:50:23;14.60;1.00
7894;DHT22;51343;51.396;6.656;2022-10-20T10:52:53;14.50;1.00
7894;DHT22;51343;51.396;6.656;2022-10-20T10:55:23;14.50;1.00
7894;DHT22;51343;51.396;6.656;2022-10-20T10:57:53;14.50;1.00
7894;DHT22;51343;51.396;6.656;2022-10-20T11:00:27;14.50;50.00
7894;DHT22;51343;51.396;6.656;2022-10-20T11:03:00;14.60;1.00
7894;DHT22;51343;51.396;6.656;2022-10-20T11:08:17;14.70;99.90
7894;DHT22;51343;51.396;6.656;2022-10-20T11:10:46;14.70;1.00
7894;DHT22;51343;51.396;6.656;2022-10-20T11:13:19;14.60;1.00
7894;DHT22;51343;51.396;6.656;2022-10-20T11:15:59;14.60;1.00
7894;DHT22;51343;51.396;6.656;2022-10-20T11:18:38;14.50;1.00
7894;DHT22;51343;51.396;6.656;2022-10-20T11:21:10;14.40;43.20
7894;DHT22;51343;51.396;6.656;2022-10-20T11:23:56;14.30;1.00
7894;DHT22;51343;51.396;6.656;2022-10-20T11:26:27;14.10;79.40
7894;DHT22;51343;51.396;6.656;2022-10-20T11:28:58;14.10;99.90
7894;DHT22;51343;51.396;6.656;2022-10-20T11:31:27;13.90;99.90
7894;DHT22;51343;51.396;6.656;2022-10-20T11:33:59;13.80;1.00
7894;DHT22;51343;51.396;6.656;2022-10-20T11:36:30;13.70;1.00
7894;DHT22;51343;51.396;6.656;2022-10-20T11:38:58;13.60;1.00
7894;DHT22;51343;51.396;6.656;2022-10-20T11:41:26;13.50;1.00
7894;DHT22;51343;51.396;6.656;2022-10-20T11:43:55;13.40;99.90
7894;DHT22;51343;51.396;6.656;2022-10-20T11:46:24;13.30;1.00
7894;DHT22;51343;51.396;6.656;2022-10-20T11:48:55;13.20;1.00
7894;DHT22;51343;51.396;6.656;2022-10-20T11:51:29;13.10;54.80
7894;DHT22;51343;51.396;6.656;2022-10-20T11:54:06;13.00;99.90
7894;DHT22;51343;51.396;6.656;2022-10-20T11:56:40;12.90;99.90
7894;DHT22;51343;51.396;6.656;2022-10-20T11:59:31;12.90;99.90
7894;DHT22;51343;51.396;6.656;2022-10-20T12:02:03;12.90;99.90
7894;DHT22;51343;51.396;6.656;2022-10-20T12:04:37;12.90;99.90
7894;DHT22;51343;51.396;6.656;2022-10-20T12:07:36;12.80;99.90
7894;DHT22;51343;51.396;6.656;2022-10-20T12:10:14;12.80;99.90
7894;DHT22;51343;51.396;6.656;2022-10-20T12:12:48;12.70;99.90
7894;DHT22;51343;51.396;6.656;2022-10-20T12:15:19;12.70;99.90
7894;DHT22;51343;51.396;6.656;2022-10-20T12:17:46;12.70;99.90
7894;DHT22;51343;51.396;6.656;2022-10-20T12:23:00;12.60;99.90
7894;DHT22;51343;51.396;6.656;2022-10-20T12:25:34;12.60;99.90
7894;DHT22;51343;51.396;6.656;2022-10-20T12:30:52;12.60;99.90
7894;DHT22;51343;51.396;6.656;2022-10-20T12:33:20;12.60;99.90
7894;DHT22;51343;51.396;6.656;2022-10-20T12:35:59;12.60;99.90
7894;DHT22;51343;51.396;6.656;2022-10-20T12:38:39;12.60;99.90
7894;DHT22;51343;51.396;6.656;2022-10-20T12:41:06;12.60;99.90
7894;DHT22;51343;51.396;6.656;2022-10-20T12:43:43;12.70;99.90
7894;DHT22;51343;51.396;6.656;2022-10-20T12:46:15;12.80;99.90
7894;DHT22;51343;51.396;6.656;2022-10-20T12:48:44;12.90;99.90
7894;DHT22;51343;51.396;6.656;2022-10-20T12:51:16;13.00;99.90
7894;DHT22;51343;51.396;6.656;2022-10-20T12:53:50;13.20;99.90
7894;DHT22;51343;51.396;6.656;2022-10-20T12:56:18;13.30;99.90
7894;DHT22;51343;51.396;6.656;2022-10-20T13:01:27;13.30;99.90
7894;DHT22;51343;51.396;6.656;2022-10-20T13:03:53;13.30;99.90
7894;DHT22;51343;51.396;6.656;2022-10-20T13:06:39;13.20;99.90
7894;DHT22;51343;51.396;6.656;2022-10-20T13:09:17;13.20;99.90
7894;DHT22;51343;51.396;6.656;2022-10-20T13:11:53;13.30;99.90
7894;DHT22;51343;51.396;6.656;2022-10-20T13:14:27;13.40;99.90
7894;DHT22;51343;51.396;6.656;2022-10-20T13:17:04;13.40;99.90
7894;DHT22;51343;51.396;6.656;2022-10-20T13:19:37;13.50;99.90
7894;DHT22;51343;51.396;6.656;2022-10-20T13:24:58;13.60;99.90
7894;DHT22;51343;51.396;6.656;2022-10-20T13:27:25;13.70;99.90
7894;DHT22;51343;51.396;6.656;2022-10-20T13:29:53;13.70;99.90
7894;DHT22;51343;51.396;6.656;2022-10-20T13:32:20;13.70;99.90
7894;DHT22;51343;51.396;6.656;2022-10-20T13:34:50;13.90;99.90
7894;DHT22;51343;51.396;6.656;2022-10-20T13:37:20;14.00;99.90
7894;DHT22;51343;51.396;6.656;2022-10-20T13:39:54;14.00;99.90
7894;DHT22;51343;51.396;6.656;2022-10-20T13:42:29;14.20;99.90
7894;DHT22;51343;51.396;6.656;2022-10-20T13:45:01;14.50;99.90
7894;DHT22;51343;51.396;6.656;2022-10-20T13:47:36;14.80;99.90
7894;DHT22;51343;51.396;6.656;2022-10-20T13:50:08;14.90;99.90
7894;DHT22;51343;51.396;6.656;2022-10-20T13:52:36;15.30;99.90
7894;DHT22;51343;51.396;6.656;2022-10-20T13:55:05;15.40;99.90
7894;DHT22;51343;51.396;6.656;2022-10-20T13:57:34;15.50;99.90
7894;DHT22;51343;51.396;6.656;2022-10-20T14:00:02;15.80;99.90
7894;DHT22;51343;51.396;6.656;2022-10-20T14:02:30;15.70;99.90
7894;DHT22;51343;51.396;6.656;2022-10-20T14:05:00;15.50;99.90
7894;DHT22;51343;51.396;6.656;2022-10-20T14:07:33;15.30;99.90
7894;DHT22;51343;51.396;6.656;2022-10-20T14:10:01;15.10;99.90
7894;DHT22;51343;51.396;6.656;2022-10-20T14:12:27;14.90;99.90
7894;DHT22;51343;51.396;6.656;2022-10-20T14:14:57;14.80;99.90
7894;DHT22;51343;51.396;6.656;2022-10-20T14:17:24;14.90;99.90
7894;DHT22;51343;51.396;6.656;2022-10-20T14:19:57;15.10;99.90
7894;DHT22;51343;51.396;6.656;2022-10-20T14:22:32;15.40;99.90
7894;DHT22;51343;51.396;6.656;2022-10-20T14:25:00;15.60;99.90
7894;DHT22;51343;51.396;6.656;2022-10-20T14:27:30;15.60;99.90
7894;DHT22;51343;51.396;6.656;2022-10-20T14:29:58;15.50;99.90
7894;DHT22;51343;51.396;6.656;2022-10-20T14:32:26;15.50;99.90
7894;DHT22;51343;51.396;6.656;2022-10-20T14:34:53;15.40;99.90
7894;DHT22;51343;51.396;6.656;2022-10-20T14:37:22;15.40;99.90
7894;DHT22;51343;51.396;6.656;2022-10-20T14:39:51;15.30;99.90
7894;DHT22;51343;51.396;6.656;2022-10-20T14:42:19;15.10;99.90
7894;DHT22;51343;51.396;6.656;2022-10-20T14:44:48;15.00;99.90
7894;DHT22;51343;51.396;6.656;2022-10-20T14:47:16;14.90;99.90
7894;DHT22;51343;51.396;6.656;2022-10-20T14:49:45;14.90;99.90
7894;DHT22;51343;51.396;6.656;2022-10-20T14:52:18;14.90;99.90
7894;DHT22;51343;51.396;6.656;2022-10-20T14:54:46;14.90;99.90
7894;DHT22;51343;51.396;6.656;2022-10-20T14:57:30;14.90;99.90
7894;DHT22;51343;51.396;6.656;2022-10-20T14:59:57;14.90;99.90
7894;DHT22;51343;51.396;6.656;2022-10-20T15:02:29;14.90;99.90
7894;DHT22;51343;51.396;6.656;2022-10-20T15:05:18;14.90;99.90
7894;DHT22;51343;51.396;6.656;2022-10-20T15:07:43;14.80;99.90
7894;DHT22;51343;51.396;6.656;2022-10-20T15:10:12;14.80;99.90
7894;DHT22;51343;51.396;6.656;2022-10-20T15:12:40;14.80;99.90
7894;DHT22;51343;51.396;6.656;2022-10-20T15:15:16;14.80;99.90
7894;DHT22;51343;51.396;6.656;2022-10-20T15:17:46;14.80;99.90
7894;DHT22;51343;51.396;6.656;2022-10-20T15:20:30;14.80;99.90
7894;DHT22;51343;51.396;6.656;2022-10-20T15:22:57;14.80;99.90
7894;DHT22;51343;51.396;6.656;2022-10-20T15:25:24;14.80;99.90
7894;DHT22;51343;51.396;6.656;2022-10-20T15:27:52;14.70;99.90
7894;DHT22;51343;51.396;6.656;2022-10-20T15:30:21;14.70;99.90
7894;DHT22;51343;51.396;6.656;2022-10-20T15:32:51;14.60;99.90
7894;DHT22;51343;51.396;6.656;2022-10-20T15:35:18;14.60;99.90
7894;DHT22;51343;51.396;6.656;2022-10-20T15:37:47;14.60;99.90
7894;DHT22;51343;51.396;6.656;2022-10-20T15:40:14;14.60;99.90
7894;DHT22;51343;51.396;6.656;2022-10-20T15:42:40;14.60;99.90
7894;DHT22;51343;51.396;6.656;2022-10-20T15:45:11;14.60;99.90
7894;DHT22;51343;51.396;6.656;2022-10-20T15:47:38;14.60;99.90
7894;DHT22;51343;51.396;6.656;2022-10-20T15:50:07;14.60;99.90
7894;DHT22;51343;51.396;6.656;2022-10-20T15:52:36;14.60;99.90
7894;DHT22;51343;51.396;6.656;2022-10-20T15:55:08;14.60;99.90
7894;DHT22;51343;51.396;6.656;2022-10-20T15:57:36;14.60;99.90
7894;DHT22;51343;51.396;6.656;2022-10-20T16:00:03;14.60;99.90
7894;DHT22;51343;51.396;6.656;2022-10-20T16:02:30;14.50;99.90
7894;DHT22;51343;51.396;6.656;2022-10-20T16:04:56;14.50;99.90
7894;DHT22;51343;51.396;6.656;2022-10-20T16:07:24;14.50;99.90
7894;DHT22;51343;51.396;6.656;2022-10-20T16:09:51;14.40;99.90
7894;DHT22;51343;51.396;6.656;2022-10-20T16:12:18;14.40;99.90
7894;DHT22;51343;51.396;6.656;2022-10-20T16:14:44;14.30;99.90
7894;DHT22;51343;51.396;6.656;2022-10-20T16:17:11;14.30;99.90
7894;DHT22;51343;51.396;6.656;2022-10-20T16:19:37;14.30;99.90
7894;DHT22;51343;51.396;6.656;2022-10-20T16:22:04;14.20;99.90